createdAt,value
2023-05-23T00:00:15.625Z,12.50
2023-05-23T00:03:05.042Z,12.46
2023-05-23T00:05:34.252Z,12.44
2023-05-23T00:08:02.556Z,12.42
2023-05-23T00:10:30.669Z,12.38
2023-05-23T00:12:59.062Z,12.37
2023-05-23T00:15:27.254Z,12.34
2023-05-23T00:17:55.395Z,12.30
2023-05-23T00:20:23.389Z,12.27
2023-05-23T00:22:53.059Z,12.23
2023-05-23T00:25:22.203Z,12.15
2023-05-23T00:27:51.586Z,12.13
2023-05-23T00:30:19.603Z,12.09
2023-05-23T00:32:47.786Z,12.06
2023-05-23T00:35:15.900Z,12.01
2023-05-23T00:37:44.016Z,11.95
2023-05-23T00:40:12.473Z,11.91
2023-05-23T00:42:40.860Z,11.84
2023-05-23T00:45:09.629Z,11.83
2023-05-23T00:47:37.896Z,11.79
2023-05-23T00:50:09.600Z,11.73
2023-05-23T00:52:38.926Z,11.70
2023-05-23T00:55:08.631Z,11.68
2023-05-23T00:57:41.702Z,11.64
2023-05-23T01:00:10.860Z,11.61
2023-05-23T01:02:45.354Z,11.56
2023-05-23T01:05:17.860Z,11.53
2023-05-23T01:07:51.129Z,11.50
2023-05-23T01:10:25.848Z,11.46
2023-05-23T01:13:08.785Z,11.44
2023-05-23T01:16:02.804Z,11.41
2023-05-23T01:18:41.508Z,11.39
2023-05-23T01:21:19.725Z,11.36
2023-05-23T01:24:15.122Z,11.33
2023-05-23T01:27:01.273Z,11.27
2023-05-23T01:29:34.635Z,11.24
2023-05-23T01:32:06.784Z,11.21
2023-05-23T01:34:36.909Z,11.19
2023-05-23T01:37:11.845Z,11.16
2023-05-23T01:39:40.110Z,11.13
2023-05-23T01:42:08.835Z,11.09
2023-05-23T01:44:38.692Z,11.07
2023-05-23T01:47:09.649Z,11.05
2023-05-23T01:49:38.534Z,11.03
2023-05-23T01:52:10.201Z,11.00
2023-05-23T01:54:39.275Z,10.97
2023-05-23T01:57:07.497Z,10.95
2023-05-23T01:59:36.206Z,10.92
2023-05-23T02:02:04.424Z,10.88
2023-05-23T02:04:32.801Z,10.86
2023-05-23T02:07:01.203Z,10.82
2023-05-23T02:09:29.399Z,10.78
2023-05-23T02:11:57.379Z,10.74
2023-05-23T02:14:26.971Z,10.71
2023-05-23T02:16:55.428Z,10.69
2023-05-23T02:19:23.561Z,10.66
2023-05-23T02:21:51.627Z,10.60
2023-05-23T02:24:19.698Z,10.56
2023-05-23T02:26:47.682Z,10.53
2023-05-23T02:29:15.623Z,10.52
2023-05-23T02:31:44.083Z,10.49
2023-05-23T02:34:12.178Z,10.48
2023-05-23T02:36:40.498Z,10.47
2023-05-23T02:39:08.607Z,10.45
2023-05-23T02:41:37.243Z,10.43
2023-05-23T02:44:05.904Z,10.42
2023-05-23T02:46:33.997Z,10.40
2023-05-23T02:49:02.090Z,10.38
2023-05-23T02:51:31.669Z,10.38
2023-05-23T02:54:00.014Z,10.35
2023-05-23T02:56:28.241Z,10.34
2023-05-23T02:58:56.528Z,10.33
2023-05-23T03:01:24.655Z,10.33
2023-05-23T03:03:52.770Z,10.34
2023-05-23T03:06:22.592Z,10.37
2023-05-23T03:08:51.466Z,10.40
2023-05-23T03:11:19.553Z,10.42
2023-05-23T03:13:47.483Z,10.44
2023-05-23T03:16:15.597Z,10.47
2023-05-23T03:18:43.733Z,10.48
2023-05-23T03:21:11.871Z,10.48
2023-05-23T03:23:39.883Z,10.50
2023-05-23T03:26:08.211Z,10.51
2023-05-23T03:28:36.538Z,10.52
2023-05-23T03:31:04.709Z,10.53
2023-05-23T03:33:33.468Z,10.57
2023-05-23T03:36:01.563Z,10.59
2023-05-23T03:38:30.250Z,10.61
2023-05-23T03:40:58.250Z,10.65
2023-05-23T03:43:26.445Z,10.69
2023-05-23T03:45:54.503Z,10.72
2023-05-23T03:48:22.560Z,10.73
2023-05-23T03:50:50.686Z,10.75
2023-05-23T03:53:19.600Z,10.77
2023-05-23T03:55:47.728Z,10.78
2023-05-23T03:58:16.324Z,10.81
2023-05-23T04:00:45.366Z,10.83
2023-05-23T04:03:15.709Z,10.86
2023-05-23T04:05:44.126Z,10.89
2023-05-23T04:08:13.116Z,10.96
2023-05-23T04:10:41.554Z,11.03
2023-05-23T04:13:09.769Z,11.11
2023-05-23T04:15:40.066Z,11.17
2023-05-23T04:18:11.587Z,11.23
2023-05-23T04:20:39.649Z,11.26
2023-05-23T04:23:07.885Z,11.29
2023-05-23T04:25:40.221Z,11.32
2023-05-23T04:28:17.677Z,11.37
2023-05-23T04:30:46.062Z,11.45
2023-05-23T04:33:14.396Z,11.56
2023-05-23T04:35:43.930Z,11.65
2023-05-23T04:38:13.880Z,11.77
2023-05-23T04:40:43.424Z,11.86
2023-05-23T04:43:17.386Z,11.95
2023-05-23T04:46:14.705Z,12.01
2023-05-23T04:48:48.638Z,12.09
2023-05-23T04:51:17.117Z,12.18
2023-05-23T04:53:54.124Z,12.26
2023-05-23T04:56:28.560Z,12.30
2023-05-23T04:58:57.112Z,12.42
2023-05-23T05:01:28.206Z,12.52
2023-05-23T05:03:59.423Z,12.61
2023-05-23T05:06:29.323Z,12.69
2023-05-23T05:08:58.700Z,12.80
2023-05-23T05:11:27.361Z,12.92
2023-05-23T05:13:56.147Z,13.08
2023-05-23T05:16:24.536Z,13.21
2023-05-23T05:18:53.217Z,13.37
2023-05-23T05:21:24.730Z,13.49
2023-05-23T05:23:52.952Z,13.58
2023-05-23T05:26:23.464Z,13.70
2023-05-23T05:28:52.102Z,13.78
2023-05-23T05:31:21.071Z,13.87
2023-05-23T05:33:50.832Z,13.95
2023-05-23T05:36:20.423Z,14.06
2023-05-23T05:38:48.709Z,14.12
2023-05-23T05:41:19.026Z,14.27
2023-05-23T05:43:50.540Z,14.42
2023-05-23T05:46:19.386Z,14.58
2023-05-23T05:48:50.453Z,14.71
2023-05-23T05:51:20.260Z,14.85
2023-05-23T05:53:49.737Z,14.98
2023-05-23T05:56:18.918Z,15.14
2023-05-23T05:58:47.628Z,15.29
2023-05-23T06:01:18.792Z,15.39
2023-05-23T06:03:47.568Z,15.61
2023-05-23T06:06:16.562Z,15.79
2023-05-23T06:08:46.590Z,15.90
2023-05-23T06:11:17.714Z,16.01
2023-05-23T06:13:46.527Z,16.13
2023-05-23T06:16:16.550Z,16.27
2023-05-23T06:18:45.905Z,16.40
2023-05-23T06:21:15.103Z,16.47
2023-05-23T06:23:50.296Z,16.67
2023-05-23T06:26:21.578Z,16.75
2023-05-23T06:28:50.287Z,16.90
2023-05-23T06:31:18.586Z,17.13
2023-05-23T06:33:49.406Z,17.21
2023-05-23T06:36:20.691Z,17.29
2023-05-23T06:38:53.651Z,17.50
2023-05-23T06:41:24.321Z,17.70
2023-05-23T06:43:55.148Z,17.83
2023-05-23T06:46:26.105Z,17.90
2023-05-23T06:49:06.600Z,18.12
2023-05-23T06:51:43.126Z,18.29
2023-05-23T06:54:14.916Z,18.43
2023-05-23T06:56:43.723Z,18.37
2023-05-23T06:59:12.245Z,18.44
2023-05-23T07:01:42.737Z,18.46
2023-05-23T07:04:15.705Z,18.50
2023-05-23T07:06:45.696Z,18.54
2023-05-23T07:09:14.851Z,18.56
2023-05-23T07:11:43.420Z,18.64
2023-05-23T07:14:12.501Z,18.76
2023-05-23T07:16:45.570Z,18.87
2023-05-23T07:19:17.918Z,19.00
2023-05-23T07:21:56.942Z,19.21
2023-05-23T07:24:28.670Z,19.42
2023-05-23T07:26:59.000Z,19.59
2023-05-23T07:29:29.188Z,19.70
2023-05-23T07:32:08.833Z,19.87
2023-05-23T07:34:39.331Z,20.02
2023-05-23T07:37:11.318Z,20.00
2023-05-23T07:39:51.764Z,20.01
2023-05-23T07:42:21.132Z,20.16
2023-05-23T07:44:49.976Z,20.13
2023-05-23T07:47:25.770Z,20.35
2023-05-23T07:49:56.624Z,20.46
2023-05-23T07:52:32.752Z,20.59
2023-05-23T07:55:01.236Z,20.59
2023-05-23T07:57:30.710Z,20.82
2023-05-23T08:01:09.430Z,20.94
2023-05-23T08:04:09.858Z,21.05
2023-05-23T08:07:06.188Z,21.11
2023-05-23T08:09:46.481Z,21.21
2023-05-23T08:12:21.616Z,21.26
2023-05-23T08:14:53.687Z,21.44
2023-05-23T08:17:27.403Z,21.37
2023-05-23T08:19:58.634Z,21.15
2023-05-23T08:22:28.898Z,21.28
2023-05-23T08:25:03.224Z,21.41
2023-05-23T08:27:34.328Z,21.62
2023-05-23T08:30:08.662Z,21.83
2023-05-23T08:32:38.143Z,21.98
2023-05-23T08:35:07.321Z,22.13
2023-05-23T08:37:37.487Z,22.33
2023-05-23T08:40:14.194Z,22.27
2023-05-23T08:42:50.205Z,22.36
2023-05-23T08:45:20.282Z,22.67
2023-05-23T08:47:56.035Z,22.85
2023-05-23T08:50:42.738Z,22.93
2023-05-23T08:53:21.209Z,23.02
2023-05-23T08:56:03.155Z,23.07
2023-05-23T08:58:45.589Z,23.26
2023-05-23T09:01:18.150Z,23.26
2023-05-23T09:03:48.223Z,23.33
2023-05-23T09:06:24.448Z,23.43
2023-05-23T09:08:56.183Z,23.49
2023-05-23T09:11:26.167Z,23.67
2023-05-23T09:14:02.342Z,23.73
2023-05-23T09:16:37.413Z,23.82
2023-05-23T09:19:15.922Z,23.75
2023-05-23T09:21:59.313Z,23.77
2023-05-23T09:24:36.496Z,23.67
2023-05-23T09:27:07.554Z,23.84
2023-05-23T09:29:40.762Z,23.87
2023-05-23T09:32:32.432Z,24.26
2023-05-23T09:35:16.045Z,24.69
2023-05-23T09:37:58.618Z,24.73
2023-05-23T09:40:32.420Z,24.87
2023-05-23T09:43:08.230Z,25.12
2023-05-23T09:45:37.071Z,25.38
2023-05-23T09:51:16.657Z,25.44
2023-05-23T09:52:05.390Z,25.10
2023-05-23T09:54:34.322Z,25.19
2023-05-23T09:57:12.857Z,25.24
2023-05-23T09:59:45.674Z,24.95
2023-05-23T10:02:17.367Z,25.25
2023-05-23T10:04:46.540Z,25.31
2023-05-23T10:07:18.290Z,25.37
2023-05-23T10:09:58.935Z,25.81
2023-05-23T10:12:54.799Z,26.13
2023-05-23T10:15:30.214Z,26.07
2023-05-23T10:18:11.417Z,26.40
2023-05-23T10:20:48.696Z,26.61
2023-05-23T10:23:17.928Z,26.75
2023-05-23T10:25:49.107Z,27.23
2023-05-23T10:28:20.336Z,27.52
2023-05-23T10:30:49.019Z,27.55
2023-05-23T10:33:23.203Z,28.10
2023-05-23T10:36:04.346Z,28.27
2023-05-23T10:38:47.499Z,28.76
2023-05-23T10:41:37.704Z,28.50
2023-05-23T10:44:32.262Z,28.33
2023-05-23T10:47:03.251Z,28.05
2023-05-23T10:49:47.784Z,27.79
2023-05-23T10:52:19.793Z,27.67
2023-05-23T10:54:52.882Z,27.61
2023-05-23T10:57:29.513Z,28.42
2023-05-23T11:00:26.195Z,28.83
2023-05-23T11:03:11.150Z,29.00
2023-05-23T11:05:53.048Z,29.27
2023-05-23T11:08:29.754Z,29.43
2023-05-23T11:11:05.134Z,29.56
2023-05-23T11:13:54.330Z,29.57
2023-05-23T11:16:44.848Z,29.62
2023-05-23T11:19:22.094Z,29.78
2023-05-23T11:21:54.175Z,30.21
2023-05-23T11:24:24.076Z,30.21
2023-05-23T11:27:01.671Z,29.84
2023-05-23T11:29:31.819Z,30.18
2023-05-23T11:32:16.021Z,29.97
2023-05-23T11:34:46.798Z,30.03
2023-05-23T11:37:15.645Z,29.33
2023-05-23T11:39:44.041Z,29.84
2023-05-23T11:42:12.254Z,30.20
2023-05-23T11:44:40.911Z,30.20
2023-05-23T11:47:13.537Z,29.38
2023-05-23T11:49:55.556Z,28.56
2023-05-23T11:52:24.546Z,29.56
2023-05-23T11:54:55.059Z,30.15
2023-05-23T11:57:25.265Z,31.21
2023-05-23T11:59:54.740Z,31.25
2023-05-23T12:02:23.318Z,31.00
2023-05-23T12:04:56.144Z,31.14
2023-05-23T12:07:24.904Z,31.12
2023-05-23T12:09:59.734Z,30.99
2023-05-23T12:12:32.641Z,31.17
2023-05-23T12:15:01.951Z,30.65
2023-05-23T12:17:33.290Z,29.91
2023-05-23T12:20:02.132Z,28.84
2023-05-23T12:22:31.845Z,28.49
2023-05-23T12:25:01.108Z,28.96
2023-05-23T12:27:32.632Z,29.44
2023-05-23T12:30:08.619Z,29.80
2023-05-23T12:32:42.358Z,29.91
2023-05-23T12:35:22.430Z,30.52
2023-05-23T12:37:51.376Z,31.04
2023-05-23T12:40:20.561Z,31.22
2023-05-23T12:43:02.807Z,31.46
2023-05-23T12:45:56.129Z,31.60
2023-05-23T12:48:25.259Z,31.68
2023-05-23T12:50:54.133Z,31.81
2023-05-23T12:53:25.459Z,31.39
2023-05-23T12:55:59.132Z,31.41
2023-05-23T12:58:30.421Z,32.00
2023-05-23T13:01:02.894Z,32.11
2023-05-23T13:03:33.168Z,31.27
2023-05-23T13:06:06.340Z,30.87
2023-05-23T13:08:35.164Z,31.11
2023-05-23T13:11:07.260Z,30.56
2023-05-23T13:13:39.321Z,29.97
2023-05-23T13:16:08.560Z,30.12
2023-05-23T13:18:41.763Z,30.72
2023-05-23T13:21:19.467Z,31.19
2023-05-23T13:24:04.662Z,31.27
2023-05-23T13:26:41.280Z,31.48
2023-05-23T13:29:09.661Z,31.75
2023-05-23T13:31:40.364Z,32.16
2023-05-23T13:34:09.221Z,31.74
2023-05-23T13:36:47.935Z,32.00
2023-05-23T13:39:18.937Z,32.03
2023-05-23T13:41:56.892Z,32.19
2023-05-23T13:44:28.830Z,32.93
2023-05-23T13:47:36.507Z,32.81
2023-05-23T13:50:14.332Z,32.54
2023-05-23T13:52:45.728Z,32.28
2023-05-23T13:55:19.012Z,32.89
2023-05-23T13:57:48.203Z,33.33
2023-05-23T14:00:18.379Z,33.99
2023-05-23T14:02:47.593Z,33.52
2023-05-23T14:05:20.423Z,34.08
2023-05-23T14:07:54.448Z,33.81
2023-05-23T14:10:34.451Z,33.73
2023-05-23T14:13:21.263Z,34.49
2023-05-23T14:16:06.490Z,35.12
2023-05-23T14:18:36.357Z,35.09
2023-05-23T14:21:07.104Z,34.20
2023-05-23T14:23:38.545Z,34.07
2023-05-23T14:26:07.781Z,34.50
2023-05-23T14:28:36.852Z,35.10
2023-05-23T14:31:06.412Z,35.00
2023-05-23T14:33:37.233Z,35.68
2023-05-23T14:36:07.740Z,35.67
2023-05-23T14:38:40.393Z,35.32
2023-05-23T14:41:11.522Z,35.39
2023-05-23T14:43:40.487Z,35.26
2023-05-23T14:46:09.205Z,35.36
2023-05-23T14:48:39.755Z,35.36
2023-05-23T14:51:08.264Z,35.65
2023-05-23T14:53:37.581Z,36.23
2023-05-23T14:56:08.992Z,35.83
2023-05-23T14:58:41.739Z,35.29
2023-05-23T15:01:11.722Z,34.70
2023-05-23T15:03:40.271Z,34.91
2023-05-23T15:06:10.845Z,35.62
2023-05-23T15:08:39.255Z,35.79
2023-05-23T15:11:09.793Z,34.68
2023-05-23T15:13:41.717Z,35.19
2023-05-23T15:16:10.063Z,35.07
2023-05-23T15:18:42.109Z,35.83
2023-05-23T15:21:13.017Z,36.10
2023-05-23T15:23:41.946Z,35.83
2023-05-23T15:26:10.847Z,35.73
2023-05-23T15:28:39.392Z,35.43
2023-05-23T15:31:07.692Z,33.96
2023-05-23T15:33:36.121Z,34.09
2023-05-23T15:36:04.651Z,33.38
2023-05-23T15:38:34.199Z,33.75
2023-05-23T15:41:03.348Z,32.87
2023-05-23T15:43:32.907Z,33.13
2023-05-23T15:46:02.457Z,33.93
2023-05-23T15:48:30.813Z,33.90
2023-05-23T15:50:59.033Z,33.42
2023-05-23T15:53:27.209Z,32.97
2023-05-23T15:55:57.960Z,32.43
2023-05-23T15:58:26.404Z,32.73
2023-05-23T16:00:58.303Z,31.87
2023-05-23T16:03:26.849Z,32.18
2023-05-23T16:05:57.528Z,32.19
2023-05-23T16:08:28.829Z,31.78
2023-05-23T16:10:58.532Z,31.99
2023-05-23T16:13:26.722Z,32.06
2023-05-23T16:15:55.101Z,31.93
2023-05-23T16:18:24.181Z,31.86
2023-05-23T16:21:01.010Z,31.51
2023-05-23T16:23:32.146Z,30.46
2023-05-23T16:26:00.358Z,31.22
2023-05-23T16:28:37.685Z,31.32
2023-05-23T16:31:06.891Z,31.25
2023-05-23T16:33:36.099Z,31.36
2023-05-23T16:36:04.753Z,31.34
2023-05-23T16:38:36.862Z,31.29
2023-05-23T16:41:05.258Z,31.23
2023-05-23T16:43:36.705Z,31.26
2023-05-23T16:46:05.259Z,30.34
2023-05-23T16:48:33.529Z,30.08
2023-05-23T16:51:01.766Z,30.71
2023-05-23T16:53:29.893Z,30.53
2023-05-23T16:55:59.092Z,30.67
2023-05-23T16:58:29.550Z,30.34
2023-05-23T17:00:57.748Z,30.21
2023-05-23T17:03:26.122Z,29.80
2023-05-23T17:05:54.909Z,28.68
2023-05-23T17:08:23.224Z,28.81
2023-05-23T17:10:51.579Z,28.87
2023-05-23T17:13:20.732Z,28.70
2023-05-23T17:15:49.375Z,28.31
2023-05-23T17:18:17.661Z,27.88
2023-05-23T17:20:45.990Z,27.81
2023-05-23T17:23:14.709Z,27.51
2023-05-23T17:25:43.146Z,27.24
2023-05-23T17:28:12.060Z,26.64
2023-05-23T17:30:40.631Z,26.21
2023-05-23T17:33:11.072Z,25.77
2023-05-23T17:35:40.735Z,25.46
2023-05-23T17:38:09.073Z,25.08
2023-05-23T17:40:37.828Z,24.84
2023-05-23T17:43:08.885Z,24.44
2023-05-23T17:45:37.610Z,24.11
2023-05-23T17:48:05.919Z,23.89
2023-05-23T17:50:34.037Z,23.65
2023-05-23T17:53:04.214Z,23.36
2023-05-23T17:55:32.893Z,23.08
2023-05-23T17:58:01.227Z,22.85
2023-05-23T18:00:29.848Z,22.56
2023-05-23T18:02:58.495Z,22.39
2023-05-23T18:05:28.261Z,22.24
2023-05-23T18:07:56.840Z,22.05
2023-05-23T18:10:24.903Z,21.89
2023-05-23T18:12:53.653Z,21.74
2023-05-23T18:15:21.815Z,21.58
2023-05-23T18:17:52.931Z,21.44
2023-05-23T18:20:22.421Z,21.31
2023-05-23T18:22:54.965Z,21.18
2023-05-23T18:25:27.514Z,21.05
2023-05-23T18:27:59.914Z,20.89
2023-05-23T18:30:28.951Z,20.79
2023-05-23T18:32:58.973Z,20.71
2023-05-23T18:35:27.252Z,20.60
2023-05-23T18:37:55.504Z,20.45
2023-05-23T18:40:25.144Z,20.32
2023-05-23T18:42:54.468Z,20.18
2023-05-23T18:45:22.973Z,20.01
2023-05-23T18:47:51.370Z,19.89
2023-05-23T18:50:21.099Z,19.79
2023-05-23T18:52:50.273Z,19.69
2023-05-23T18:55:19.923Z,19.57
2023-05-23T18:57:48.431Z,19.44
2023-05-23T19:00:18.271Z,19.32
2023-05-23T19:02:46.844Z,19.20
2023-05-23T19:05:15.546Z,19.04
2023-05-23T19:07:43.821Z,18.91
2023-05-23T19:10:12.687Z,18.77
2023-05-23T19:12:41.117Z,18.63
2023-05-23T19:15:10.818Z,18.49
2023-05-23T19:17:39.415Z,18.35
2023-05-23T19:20:08.626Z,18.20
2023-05-23T19:22:50.463Z,18.08
2023-05-23T19:25:20.769Z,17.98
2023-05-23T19:27:49.106Z,17.91
2023-05-23T19:30:19.321Z,17.82
2023-05-23T19:32:48.317Z,17.72
2023-05-23T19:35:17.200Z,17.63
2023-05-23T19:37:46.889Z,17.54
2023-05-23T19:40:15.082Z,17.45
2023-05-23T19:42:44.136Z,17.36
2023-05-23T19:45:12.458Z,17.28
2023-05-23T19:47:42.022Z,17.19
2023-05-23T19:50:15.147Z,17.07
2023-05-23T19:52:43.436Z,17.00
2023-05-23T19:55:11.794Z,16.90
2023-05-23T19:57:39.963Z,16.83
2023-05-23T20:00:09.943Z,16.75
2023-05-23T20:02:39.044Z,16.66
2023-05-23T20:05:08.284Z,16.55
2023-05-23T20:07:39.866Z,16.48
2023-05-23T20:10:09.020Z,16.43
2023-05-23T20:12:37.315Z,16.38
2023-05-23T20:15:06.970Z,16.31
2023-05-23T20:17:35.814Z,16.26
2023-05-23T20:20:04.870Z,16.19
2023-05-23T20:22:33.018Z,16.13
2023-05-23T20:25:01.739Z,16.09
2023-05-23T20:27:29.867Z,16.03
2023-05-23T20:29:57.973Z,15.97
2023-05-23T20:32:26.020Z,15.91
2023-05-23T20:34:54.605Z,15.88
2023-05-23T20:37:22.846Z,15.84
2023-05-23T20:39:50.895Z,15.78
2023-05-23T20:42:19.215Z,15.70
2023-05-23T20:44:47.353Z,15.67
2023-05-23T20:47:15.764Z,15.60
2023-05-23T20:49:47.909Z,15.55
2023-05-23T20:52:15.999Z,15.52
2023-05-23T20:54:44.271Z,15.48
2023-05-23T20:57:12.974Z,15.44
2023-05-23T20:59:41.054Z,15.38
2023-05-23T21:02:09.985Z,15.35
2023-05-23T21:04:38.118Z,15.30
2023-05-23T21:07:06.340Z,15.22
2023-05-23T21:09:34.958Z,15.17
2023-05-23T21:12:09.687Z,15.11
2023-05-23T21:14:37.806Z,15.03
2023-05-23T21:17:06.282Z,14.96
2023-05-23T21:19:34.626Z,14.95
2023-05-23T21:22:03.079Z,14.93
2023-05-23T21:24:31.258Z,14.93
2023-05-23T21:26:59.253Z,14.91
2023-05-23T21:29:27.372Z,14.89
2023-05-23T21:31:55.415Z,14.88
2023-05-23T21:34:24.430Z,14.87
2023-05-23T21:36:53.348Z,14.84
2023-05-23T21:39:21.482Z,14.81
2023-05-23T21:41:49.848Z,14.78
2023-05-23T21:44:18.896Z,14.77
2023-05-23T21:46:47.379Z,14.75
2023-05-23T21:49:15.741Z,14.71
2023-05-23T21:51:45.164Z,14.67
2023-05-23T21:54:13.278Z,14.61
2023-05-23T21:56:41.675Z,14.57
2023-05-23T21:59:10.155Z,14.56
2023-05-23T22:01:38.966Z,14.51
2023-05-23T22:04:07.303Z,14.48
2023-05-23T22:06:35.590Z,14.46
2023-05-23T22:09:03.807Z,14.43
2023-05-23T22:11:34.332Z,14.42
2023-05-23T22:14:03.241Z,14.39
2023-05-23T22:16:39.117Z,14.33
2023-05-23T22:19:09.980Z,14.27
2023-05-23T22:21:38.813Z,14.22
2023-05-23T22:24:07.046Z,14.19
2023-05-23T22:26:35.053Z,14.16
2023-05-23T22:29:04.675Z,14.14
2023-05-23T22:31:33.574Z,14.11
2023-05-23T22:34:01.702Z,14.10
2023-05-23T22:36:29.744Z,14.08
2023-05-23T22:38:58.262Z,14.03
2023-05-23T22:41:28.329Z,13.98
2023-05-23T22:43:57.298Z,13.96
2023-05-23T22:46:25.474Z,13.92
2023-05-23T22:48:55.235Z,13.90
2023-05-23T22:51:24.961Z,13.88
2023-05-23T22:53:53.147Z,13.85
2023-05-23T22:56:21.819Z,13.86
2023-05-23T22:58:50.347Z,13.84
2023-05-23T23:01:18.427Z,13.82
2023-05-23T23:03:46.469Z,13.80
2023-05-23T23:06:14.520Z,13.78
2023-05-23T23:08:42.630Z,13.73
2023-05-23T23:11:10.712Z,13.70
2023-05-23T23:13:38.740Z,13.66
2023-05-23T23:16:08.649Z,13.61
2023-05-23T23:18:36.725Z,13.57
2023-05-23T23:21:05.876Z,13.55
2023-05-23T23:23:34.971Z,13.51
2023-05-23T23:26:03.213Z,13.44
2023-05-23T23:28:31.287Z,13.43
2023-05-23T23:30:59.357Z,13.43
2023-05-23T23:33:27.448Z,13.41
2023-05-23T23:35:55.669Z,13.38
2023-05-23T23:38:23.820Z,13.34
2023-05-23T23:40:51.877Z,13.30
2023-05-23T23:43:19.946Z,13.29
2023-05-23T23:45:48.769Z,13.30
2023-05-23T23:48:16.859Z,13.28
2023-05-23T23:50:45.058Z,13.27
2023-05-23T23:53:13.114Z,13.31
2023-05-23T23:55:41.179Z,13.34
2023-05-23T23:58:09.704Z,13.36
